Time,TemperatureF,DewpointF,PressureIn,WindDirection,WindDirectionDegrees,WindSpeedMPH,WindSpeedGustMPH,Humidity,HourlyPrecipIn,Conditions,Clouds,dailyrainin,SoftwareType,DateUTC
2013-06-03 00:11:00,61.7,57.2,29.83,ESE,105,0.0,2.0,85,0.00,NA,NA,-99.99,VWS Version 10.39,2013-06-03 07:11:00,
2013-06-03 00:21:00,61.7,57.2,29.83,East,101,2.0,3.0,85,0.00,NA,NA,-99.99,VWS Version 10.39,2013-06-03 07:21:00,
2013-06-03 00:26:00,61.7,57.2,29.82,East,90,3.0,5.0,85,0.00,NA,NA,-99.99,VWS Version 10.39,2013-06-03 07:26:00,
2013-06-03 00:31:00,61.6,57.0,29.82,East,90,1.0,1.0,85,0.00,NA,NA,-99.99,VWS Version 10.39,2013-06-03 07:31:00,
2013-06-03 00:41:00,61.6,57.0,29.82,East,83,3.0,5.0,85,0.00,NA,NA,-99.99,VWS Version 10.39,2013-06-03 07:41:00,
2013-06-03 00:46:00,61.6,57.0,29.82,East,95,5.0,5.0,85,0.00,NA,NA,-99.99,VWS Version 10.39,2013-06-03 07:46:00,
2013-06-03 00:51:00,61.6,57.0,29.82,East,95,1.0,3.0,85,0.00,NA,NA,-99.99,VWS Version 10.39,2013-06-03 07:51:00,
2013-06-03 00:56:00,61.6,57.0,29.82,ESE,105,2.0,4.0,85,0.00,NA,NA,-99.99,VWS Version 10.39,2013-06-03 07:56:00,
2013-06-03 01:01:00,61.6,57.0,29.82,ESE,107,4.0,4.0,85,0.00,NA,NA,-99.99,VWS Version 10.39,2013-06-03 08:01:00,
2013-06-03 01:06:00,61.6,57.0,29.82,ESE,107,4.0,4.0,85,0.00,NA,NA,-99.99,VWS Version 10.39,2013-06-03 08:06:00,
2013-06-03 01:11:00,61.6,57.0,29.82,ESE,115,4.0,4.0,85,0.00,NA,NA,-99.99,VWS Version 10.39,2013-06-03 08:11:00,
2013-06-03 01:16:00,61.6,57.0,29.82,ESE,111,3.0,4.0,85,0.00,NA,NA,-99.99,VWS Version 10.39,2013-06-03 08:16:00,
2013-06-03 01:21:00,61.5,57.0,29.82,East,90,3.0,5.0,85,0.00,NA,NA,-99.99,VWS Version 10.39,2013-06-03 08:21:00,
2013-06-03 01:26:00,61.5,57.0,29.81,ESE,105,4.0,5.0,85,0.00,NA,NA,-99.99,VWS Version 10.39,2013-06-03 08:26:00,
2013-06-03 01:31:00,61.4,56.9,29.81,East,101,5.0,5.0,85,0.00,NA,NA,-99.99,VWS Version 10.39,2013-06-03 08:31:00,
2013-06-03 01:41:00,61.4,56.9,29.81,ESE,109,4.0,5.0,85,0.00,NA,NA,-99.99,VWS Version 10.39,2013-06-03 08:41:00,
2013-06-03 01:46:00,61.4,56.9,29.81,East,94,2.0,3.0,85,0.00,NA,NA,-99.99,VWS Version 10.39,2013-06-03 08:46:00,
2013-06-03 01:51:00,61.4,56.9,29.81,ESE,107,1.0,4.0,85,0.00,NA,NA,-99.99,VWS Version 10.39,2013-06-03 08:51:00,
2013-06-03 01:56:00,61.4,56.9,29.81,ESE,109,2.0,3.0,85,0.00,NA,NA,-99.99,VWS Version 10.39,2013-06-03 08:56:00,
2013-06-03 02:01:00,61.4,56.9,29.81,ESE,115,2.0,3.0,85,0.00,NA,NA,-99.99,VWS Version 10.39,2013-06-03 09:01:00,
2013-06-03 02:11:00,61.4,56.9,29.81,East,91,3.0,5.0,85,0.00,NA,NA,-99.99,VWS Version 10.39,2013-06-03 09:11:00,
2013-06-03 02:16:00,61.4,56.9,29.81,East,99,3.0,3.0,85,0.00,NA,NA,-99.99,VWS Version 10.39,2013-06-03 09:16:00,
2013-06-03 02:26:00,61.4,56.9,29.81,ESE,111,2.0,4.0,85,0.00,NA,NA,-99.99,VWS Version 10.39,2013-06-03 09:26:00,
2013-06-03 02:31:00,61.4,56.9,29.81,ESE,119,3.0,5.0,85,0.00,NA,NA,-99.99,VWS Version 10.39,2013-06-03 09:31:00,
2013-06-03 02:36:00,61.4,56.9,29.81,ESE,119,3.0,5.0,85,0.00,NA,NA,-99.99,VWS Version 10.39,2013-06-03 09:36:00,
2013-06-03 02:41:00,61.4,56.9,29.81,ESE,111,4.0,4.0,85,0.00,NA,NA,-99.99,VWS Version 10.39,2013-06-03 09:41:00,
2013-06-03 02:46:00,61.4,56.9,29.81,ESE,113,1.0,3.0,85,0.00,NA,NA,-99.99,VWS Version 10.39,2013-06-03 09:46:00,
2013-06-03 02:56:00,61.5,57.0,29.81,SE,134,3.0,5.0,85,0.00,NA,NA,-99.99,VWS Version 10.39,2013-06-03 09:56:00,
2013-06-03 03:01:00,61.4,56.9,29.81,East,94,3.0,5.0,85,0.00,NA,NA,-99.99,VWS Version 10.39,2013-06-03 10:01:00,
2013-06-03 03:06:00,61.4,57.2,29.81,ESE,113,2.0,2.0,86,0.00,NA,NA,-99.99,VWS Version 10.39,2013-06-03 10:06:00,
2013-06-03 03:16:00,61.4,57.2,29.81,SSE,161,1.0,1.0,86,0.00,NA,NA,-99.99,VWS Version 10.39,2013-06-03 10:16:00,
2013-06-03 03:21:00,61.4,57.2,29.81,SSE,161,4.0,6.0,86,0.00,NA,NA,-99.99,VWS Version 10.39,2013-06-03 10:21:00,
2013-06-03 03:26:00,61.4,57.2,29.81,SE,136,2.0,4.0,86,0.00,NA,NA,-99.99,VWS Version 10.39,2013-06-03 10:26:00,
2013-06-03 03:36:00,61.4,57.2,29.81,East,100,3.0,3.0,86,0.00,NA,NA,-99.99,VWS Version 10.39,2013-06-03 10:36:00,
2013-06-03 03:41:00,61.5,57.3,29.81,SSE,147,4.0,5.0,86,0.00,NA,NA,-99.99,VWS Version 10.39,2013-06-03 10:41:00,
2013-06-03 03:46:00,61.4,57.2,29.81,ESE,108,2.0,2.0,86,0.00,NA,NA,-99.99,VWS Version 10.39,2013-06-03 10:46:00,
2013-06-03 03:51:00,61.4,57.2,29.81,ESE,111,2.0,2.0,86,0.00,NA,NA,-99.99,VWS Version 10.39,2013-06-03 10:51:00,
2013-06-03 03:56:00,61.4,57.2,29.81,ESE,119,1.0,3.0,86,0.00,NA,NA,-99.99,VWS Version 10.39,2013-06-03 10:56:00,
2013-06-03 04:01:00,61.4,57.2,29.81,ESE,105,3.0,4.0,86,0.00,NA,NA,-99.99,VWS Version 10.39,2013-06-03 11:01:00,
2013-06-03 04:06:00,61.4,57.2,29.81,ESE,106,3.0,4.0,86,0.00,NA,NA,-99.99,VWS Version 10.39,2013-06-03 11:06:00,
2013-06-03 04:11:00,61.4,57.2,29.81,East,92,3.0,3.0,86,0.00,NA,NA,-99.99,VWS Version 10.39,2013-06-03 11:11:00,
2013-06-03 04:16:00,61.5,57.3,29.81,East,96,3.0,4.0,86,0.00,NA,NA,-99.99,VWS Version 10.39,2013-06-03 11:16:00,
2013-06-03 04:21:00,61.5,57.3,29.81,East,90,5.0,6.0,86,0.00,NA,NA,-99.99,VWS Version 10.39,2013-06-03 11:21:00,
2013-06-03 04:26:00,61.4,57.2,29.81,ESE,111,3.0,3.0,86,0.00,NA,NA,-99.99,VWS Version 10.39,2013-06-03 11:26:00,
2013-06-03 04:31:00,61.4,57.2,29.82,ESE,110,4.0,4.0,86,0.00,NA,NA,-99.99,VWS Version 10.39,2013-06-03 11:31:00,
2013-06-03 04:36:00,61.5,57.3,29.82,ESE,108,2.0,3.0,86,0.00,NA,NA,-99.99,VWS Version 10.39,2013-06-03 11:36:00,
2013-06-03 04:41:00,61.5,57.0,29.82,East,89,3.0,3.0,85,0.00,NA,NA,-99.99,VWS Version 10.39,2013-06-03 11:41:00,
2013-06-03 04:51:00,61.6,57.4,29.82,SE,132,1.0,2.0,86,0.00,NA,NA,-99.99,VWS Version 10.39,2013-06-03 11:51:00,
2013-06-03 07:26:00,61.7,57.8,29.86,SE,145,3.0,3.0,87,0.00,NA,NA,-99.99,VWS Version 10.39,2013-06-03 14:26:00,
2013-06-03 07:31:00,61.7,57.8,29.86,SE,140,1.0,3.0,87,0.00,NA,NA,-99.99,VWS Version 10.39,2013-06-03 14:31:00,
2013-06-03 07:36:00,61.8,57.9,29.86,SE,139,2.0,3.0,87,0.00,NA,NA,-99.99,VWS Version 10.39,2013-06-03 14:36:00,
2013-06-03 07:46:00,61.8,57.9,29.86,East,90,1.0,3.0,87,0.00,NA,NA,-99.99,VWS Version 10.39,2013-06-03 14:46:00,
2013-06-03 07:51:00,61.8,57.9,29.87,ESE,119,3.0,4.0,87,0.00,NA,NA,-99.99,VWS Version 10.39,2013-06-03 14:51:00,
2013-06-03 07:56:00,61.8,57.9,29.87,East,99,1.0,1.0,87,0.00,NA,NA,-99.99,VWS Version 10.39,2013-06-03 14:56:00,
2013-06-03 08:06:00,61.8,57.9,29.87,SE,131,6.0,7.0,87,0.00,NA,NA,-99.99,VWS Version 10.39,2013-06-03 15:06:00,
2013-06-03 08:11:00,61.7,57.8,29.87,SSE,153,4.0,5.0,87,0.00,NA,NA,-99.99,VWS Version 10.39,2013-06-03 15:11:00,
2013-06-03 08:16:00,61.7,58.1,29.88,SE,136,3.0,3.0,88,0.00,NA,NA,-99.99,VWS Version 10.39,2013-06-03 15:16:00,
2013-06-03 08:21:00,61.6,58.0,29.88,SE,125,2.0,3.0,88,0.00,NA,NA,-99.99,VWS Version 10.39,2013-06-03 15:21:00,
2013-06-03 08:26:00,61.7,58.1,29.88,ESE,107,2.0,3.0,88,0.00,NA,NA,-99.99,VWS Version 10.39,2013-06-03 15:26:00,
2013-06-03 08:31:00,61.8,58.2,29.88,SE,140,2.0,3.0,88,0.00,NA,NA,-99.99,VWS Version 10.39,2013-06-03 15:31:00,
2013-06-03 08:36:00,61.8,57.9,29.88,SSE,148,2.0,3.0,87,0.00,NA,NA,-99.99,VWS Version 10.39,2013-06-03 15:36:00,
2013-06-03 08:41:00,61.8,58.2,29.88,SSE,161,3.0,3.0,88,0.00,NA,NA,-99.99,VWS Version 10.39,2013-06-03 15:41:00,
2013-06-03 08:46:00,61.8,57.9,29.88,SSE,159,2.0,2.0,87,0.00,NA,NA,-99.99,VWS Version 10.39,2013-06-03 15:46:00,
2013-06-03 08:51:00,61.9,58.3,29.88,SSE,155,3.0,3.0,88,0.00,NA,NA,-99.99,VWS Version 10.39,2013-06-03 15:51:00,
2013-06-03 08:56:00,61.9,58.3,29.88,SSE,156,4.0,4.0,88,0.00,NA,NA,-99.99,VWS Version 10.39,2013-06-03 15:56:00,
2013-06-03 09:01:00,61.8,58.2,29.88,SSE,155,3.0,4.0,88,0.00,NA,NA,-99.99,VWS Version 10.39,2013-06-03 16:01:00,
2013-06-03 09:06:00,61.7,58.1,29.88,SE,142,3.0,3.0,88,0.00,NA,NA,-99.99,VWS Version 10.39,2013-06-03 16:06:00,
2013-06-03 09:11:00,61.6,58.0,29.88,SSE,157,6.0,7.0,88,0.00,NA,NA,-99.99,VWS Version 10.39,2013-06-03 16:11:00,
2013-06-03 09:16:00,61.5,57.9,29.89,SE,133,3.0,5.0,88,0.00,NA,NA,-99.99,VWS Version 10.39,2013-06-03 16:16:00,
2013-06-03 09:21:00,61.6,58.0,29.89,SE,144,5.0,6.0,88,0.00,NA,NA,-99.99,VWS Version 10.39,2013-06-03 16:21:00,
2013-06-03 09:31:00,61.9,58.0,29.89,SSW,205,2.0,2.0,87,0.00,NA,NA,-99.99,VWS Version 10.39,2013-06-03 16:31:00,
2013-06-03 09:36:00,62.1,58.2,29.89,SSE,155,4.0,5.0,87,0.00,NA,NA,-99.99,VWS Version 10.39,2013-06-03 16:36:00,
2013-06-03 09:41:00,62.2,58.0,29.89,SSW,196,4.0,5.0,86,0.00,NA,NA,-99.99,VWS Version 10.39,2013-06-03 16:41:00,
2013-06-03 09:46:00,62.2,58.0,29.89,South,178,1.0,1.0,86,0.00,NA,NA,-99.99,VWS Version 10.39,2013-06-03 16:46:00,
2013-06-03 09:51:00,62.4,58.2,29.89,SSE,150,0.0,2.0,86,0.00,NA,NA,-99.99,VWS Version 10.39,2013-06-03 16:51:00,
2013-06-03 09:56:00,62.6,58.4,29.89,SSW,207,0.0,3.0,86,0.00,NA,NA,-99.99,VWS Version 10.39,2013-06-03 16:56:00,
2013-06-03 10:01:00,62.6,57.7,29.89,SSW,196,1.0,3.0,84,0.00,NA,NA,-99.99,VWS Version 10.39,2013-06-03 17:01:00,
2013-06-03 10:06:00,62.8,57.9,29.89,South,186,2.0,2.0,84,0.00,NA,NA,-99.99,VWS Version 10.39,2013-06-03 17:06:00,
2013-06-03 10:11:00,63.0,57.8,29.89,SSE,162,1.0,1.0,83,0.00,NA,NA,-99.99,VWS Version 10.39,2013-06-03 17:11:00,
2013-06-03 10:16:00,63.3,57.7,29.90,South,179,1.0,2.0,82,0.00,NA,NA,-99.99,VWS Version 10.39,2013-06-03 17:16:00,
2013-06-03 10:21:00,63.9,58.3,29.89,South,189,2.0,2.0,82,0.00,NA,NA,-99.99,VWS Version 10.39,2013-06-03 17:21:00,
2013-06-03 10:26:00,64.5,58.9,29.89,SW,215,2.0,4.0,82,0.00,NA,NA,-99.99,VWS Version 10.39,2013-06-03 17:26:00,
2013-06-03 10:31:00,65.0,58.7,29.90,SSW,205,2.0,6.0,80,0.00,NA,NA,-99.99,VWS Version 10.39,2013-06-03 17:31:00,
2013-06-03 10:41:00,66.4,59.3,29.89,West,273,2.0,4.0,78,0.00,NA,NA,-99.99,VWS Version 10.39,2013-06-03 17:41:00,
2013-06-03 10:46:00,66.6,58.8,29.89,SSW,210,2.0,4.0,76,0.00,NA,NA,-99.99,VWS Version 10.39,2013-06-03 17:46:00,
2013-06-03 10:51:00,66.4,58.6,29.89,SW,225,3.0,4.0,76,0.00,NA,NA,-99.99,VWS Version 10.39,2013-06-03 17:51:00,
2013-06-03 10:56:00,66.7,58.9,29.90,SW,216,2.0,3.0,76,0.00,NA,NA,-99.99,VWS Version 10.39,2013-06-03 17:56:00,
2013-06-03 11:06:00,66.8,59.0,29.90,SW,220,1.0,1.0,76,0.00,NA,NA,-99.99,VWS Version 10.39,2013-06-03 18:06:00,
2013-06-03 11:11:00,66.7,58.2,29.90,SSW,198,3.0,4.0,74,0.00,NA,NA,-99.99,VWS Version 10.39,2013-06-03 18:11:00,
2013-06-03 11:21:00,66.4,58.2,29.90,SW,214,2.0,2.0,75,0.00,NA,NA,-99.99,VWS Version 10.39,2013-06-03 18:21:00,
2013-06-03 11:26:00,66.3,58.2,29.90,SW,214,2.0,2.0,75,0.00,NA,NA,-99.99,VWS Version 10.39,2013-06-03 18:26:00,
2013-06-03 11:31:00,66.2,57.7,29.90,SSW,198,2.0,6.0,74,0.00,NA,NA,-99.99,VWS Version 10.39,2013-06-03 18:31:00,
2013-06-03 11:36:00,66.0,58.2,29.90,WSW,257,3.0,6.0,76,0.00,NA,NA,-99.99,VWS Version 10.39,2013-06-03 18:36:00,
2013-06-03 11:41:00,66.0,57.9,29.90,SW,216,1.0,2.0,75,0.00,NA,NA,-99.99,VWS Version 10.39,2013-06-03 18:41:00,
2013-06-03 11:51:00,66.3,57.8,29.90,SSE,151,5.0,5.0,74,0.00,NA,NA,-99.99,VWS Version 10.39,2013-06-03 18:51:00,
2013-06-03 11:56:00,66.4,58.2,29.90,West,266,1.0,1.0,75,0.00,NA,NA,-99.99,VWS Version 10.39,2013-06-03 18:56:00,
2013-06-03 12:06:00,67.7,58.7,29.89,South,184,4.0,5.0,73,0.00,NA,NA,-99.99,VWS Version 10.39,2013-06-03 19:06:00,
2013-06-03 12:11:00,67.9,58.2,29.89,SSW,208,2.0,4.0,71,0.00,NA,NA,-99.99,VWS Version 10.39,2013-06-03 19:11:00,
2013-06-03 12:16:00,67.8,58.1,29.89,SSE,159,2.0,4.0,71,0.00,NA,NA,-99.99,VWS Version 10.39,2013-06-03 19:16:00,
2013-06-03 12:26:00,67.9,57.4,29.89,South,184,6.0,6.0,69,0.00,NA,NA,-99.99,VWS Version 10.39,2013-06-03 19:26:00,
2013-06-03 12:31:00,67.8,57.7,29.89,WSW,250,2.0,4.0,70,0.00,NA,NA,-99.99,VWS Version 10.39,2013-06-03 19:31:00,
2013-06-03 12:36:00,68.2,57.7,29.89,South,190,5.0,5.0,69,0.00,NA,NA,-99.99,VWS Version 10.39,2013-06-03 19:36:00,
2013-06-03 12:41:00,68.2,57.7,29.89,SSW,206,4.0,6.0,69,0.00,NA,NA,-99.99,VWS Version 10.39,2013-06-03 19:41:00,
2013-06-03 12:46:00,68.0,57.5,29.89,SSW,206,5.0,7.0,69,0.00,NA,NA,-99.99,VWS Version 10.39,2013-06-03 19:46:00,
2013-06-03 12:51:00,67.7,57.6,29.89,WSW,238,2.0,2.0,70,0.00,NA,NA,-99.99,VWS Version 10.39,2013-06-03 19:51:00,
2013-06-03 12:56:00,68.1,57.6,29.89,SSW,207,3.0,4.0,69,0.00,NA,NA,-99.99,VWS Version 10.39,2013-06-03 19:56:00,
2013-06-03 13:01:00,67.7,57.2,29.89,SE,132,4.0,6.0,69,0.00,NA,NA,-99.99,VWS Version 10.39,2013-06-03 20:01:00,
2013-06-03 13:11:00,68.4,57.8,29.89,SSW,205,1.0,3.0,69,0.00,NA,NA,-99.99,VWS Version 10.39,2013-06-03 20:11:00,
2013-06-03 13:16:00,68.8,57.8,29.88,South,184,7.0,7.0,68,0.00,NA,NA,-99.99,VWS Version 10.39,2013-06-03 20:16:00,
2013-06-03 13:21:00,68.9,57.9,29.88,SSW,203,5.0,6.0,68,0.00,NA,NA,-99.99,VWS Version 10.39,2013-06-03 20:21:00,
2013-06-03 13:26:00,68.8,58.2,29.88,SSW,203,4.0,6.0,69,0.00,NA,NA,-99.99,VWS Version 10.39,2013-06-03 20:26:00,
2013-06-03 13:31:00,69.4,58.8,29.88,SSW,204,3.0,5.0,69,0.00,NA,NA,-99.99,VWS Version 10.39,2013-06-03 20:31:00,
2013-06-03 13:41:00,69.1,58.1,29.88,SW,215,5.0,7.0,68,0.00,NA,NA,-99.99,VWS Version 10.39,2013-06-03 20:41:00,
2013-06-03 13:46:00,68.9,58.3,29.88,SSE,154,5.0,8.0,69,0.00,NA,NA,-99.99,VWS Version 10.39,2013-06-03 20:46:00,
2013-06-03 13:51:00,68.8,58.6,29.88,SSW,207,5.0,8.0,70,0.00,NA,NA,-99.99,VWS Version 10.39,2013-06-03 20:51:00,
2013-06-03 13:56:00,69.0,58.0,29.88,SSE,163,3.0,5.0,68,0.00,NA,NA,-99.99,VWS Version 10.39,2013-06-03 20:56:00,
2013-06-03 14:01:00,68.7,58.9,29.87,West,262,1.0,3.0,71,0.00,NA,NA,-99.99,VWS Version 10.39,2013-06-03 21:01:00,
2013-06-03 14:06:00,68.6,58.0,29.87,WSW,242,7.0,7.0,69,0.00,NA,NA,-99.99,VWS Version 10.39,2013-06-03 21:06:00,
2013-06-03 14:11:00,68.6,58.4,29.87,West,267,2.0,4.0,70,0.00,NA,NA,-99.99,VWS Version 10.39,2013-06-03 21:11:00,
2013-06-03 14:16:00,68.7,58.1,29.87,NW,311,2.0,5.0,69,0.00,NA,NA,-99.99,VWS Version 10.39,2013-06-03 21:16:00,
2013-06-03 14:21:00,69.0,58.0,29.87,SW,227,4.0,5.0,68,0.00,NA,NA,-99.99,VWS Version 10.39,2013-06-03 21:21:00,
2013-06-03 14:26:00,68.7,58.5,29.87,SSW,210,4.0,5.0,70,0.00,NA,NA,-99.99,VWS Version 10.39,2013-06-03 21:26:00,
2013-06-03 14:31:00,69.0,58.4,29.88,WSW,252,2.0,5.0,69,0.00,NA,NA,-99.99,VWS Version 10.39,2013-06-03 21:31:00,
2013-06-03 14:41:00,69.8,58.8,29.88,WSW,256,3.0,6.0,68,0.00,NA,NA,-99.99,VWS Version 10.39,2013-06-03 21:41:00,
2013-06-03 14:51:00,69.2,58.6,29.87,SSW,198,6.0,7.0,69,0.00,NA,NA,-99.99,VWS Version 10.39,2013-06-03 21:51:00,
2013-06-03 14:56:00,69.0,58.8,29.87,SSW,205,4.0,4.0,70,0.00,NA,NA,-99.99,VWS Version 10.39,2013-06-03 21:56:00,
2013-06-03 15:06:00,68.9,58.7,29.87,SSW,195,2.0,2.0,70,0.00,NA,NA,-99.99,VWS Version 10.39,2013-06-03 22:06:00,
2013-06-03 15:11:00,68.8,58.6,29.87,West,270,8.0,8.0,70,0.00,NA,NA,-99.99,VWS Version 10.39,2013-06-03 22:11:00,
2013-06-03 15:16:00,68.7,58.5,29.87,SSE,163,3.0,6.0,70,0.00,NA,NA,-99.99,VWS Version 10.39,2013-06-03 22:16:00,
2013-06-03 15:26:00,68.5,57.9,29.87,SSW,200,4.0,5.0,69,0.00,NA,NA,-99.99,VWS Version 10.39,2013-06-03 22:26:00,
2013-06-03 15:31:00,68.4,58.6,29.86,WSW,243,8.0,8.0,71,0.00,NA,NA,-99.99,VWS Version 10.39,2013-06-03 22:31:00,
2013-06-03 15:41:00,68.7,58.5,29.86,SW,233,3.0,7.0,70,0.00,NA,NA,-99.99,VWS Version 10.39,2013-06-03 22:41:00,
2013-06-03 15:46:00,68.5,58.7,29.86,SSW,194,5.0,6.0,71,0.00,NA,NA,-99.99,VWS Version 10.39,2013-06-03 22:46:00,
2013-06-03 15:51:00,68.3,58.2,29.86,WSW,238,6.0,7.0,70,0.00,NA,NA,-99.99,VWS Version 10.39,2013-06-03 22:51:00,
2013-06-03 16:11:00,68.2,58.5,29.86,SSW,211,2.0,5.0,71,0.00,NA,NA,-99.99,VWS Version 10.39,2013-06-03 23:11:00,
2013-06-03 16:16:00,68.0,58.3,29.86,SSW,209,0.0,5.0,71,0.00,NA,NA,-99.99,VWS Version 10.39,2013-06-03 23:16:00,
2013-06-03 16:21:00,67.4,58.1,29.86,SW,234,5.0,6.0,72,0.00,NA,NA,-99.99,VWS Version 10.39,2013-06-03 23:21:00,
2013-06-03 16:26:00,67.3,58.4,29.86,WSW,248,6.0,7.0,73,0.00,NA,NA,-99.99,VWS Version 10.39,2013-06-03 23:26:00,
2013-06-03 16:36:00,67.5,58.5,29.86,SSW,213,6.0,7.0,73,0.00,NA,NA,-99.99,VWS Version 10.39,2013-06-03 23:36:00,
2013-06-03 16:41:00,67.8,58.8,29.86,SSW,207,4.0,4.0,73,0.00,NA,NA,-99.99,VWS Version 10.39,2013-06-03 23:41:00,
2013-06-03 16:46:00,67.3,58.0,29.86,WSW,240,3.0,5.0,72,0.00,NA,NA,-99.99,VWS Version 10.39,2013-06-03 23:46:00,
2013-06-03 16:51:00,66.9,58.0,29.85,SSW,202,3.0,5.0,73,0.00,NA,NA,-99.99,VWS Version 10.39,2013-06-03 23:51:00,
2013-06-03 16:56:00,66.6,58.1,29.85,SSW,205,3.0,3.0,74,0.00,NA,NA,-99.99,VWS Version 10.39,2013-06-03 23:56:00,
2013-06-03 17:01:00,67.0,58.1,29.85,SSW,213,3.0,6.0,73,0.00,NA,NA,-99.99,VWS Version 10.39,2013-06-04 00:01:00,
2013-06-03 17:06:00,67.1,58.2,29.86,South,190,2.0,6.0,73,0.00,NA,NA,-99.99,VWS Version 10.39,2013-06-04 00:06:00,
2013-06-03 17:11:00,66.4,57.5,29.85,WSW,239,3.0,4.0,73,0.00,NA,NA,-99.99,VWS Version 10.39,2013-06-04 00:11:00,
2013-06-03 17:21:00,65.9,58.1,29.86,SSW,213,2.0,6.0,76,0.00,NA,NA,-99.99,VWS Version 10.39,2013-06-04 00:21:00,
2013-06-03 17:26:00,65.7,57.6,29.86,South,176,4.0,4.0,75,0.00,NA,NA,-99.99,VWS Version 10.39,2013-06-04 00:26:00,
2013-06-03 17:31:00,65.2,57.1,29.86,SW,219,3.0,5.0,75,0.00,NA,NA,-99.99,VWS Version 10.39,2013-06-04 00:31:00,
2013-06-03 17:36:00,65.1,57.4,29.86,SSE,157,2.0,3.0,76,0.00,NA,NA,-99.99,VWS Version 10.39,2013-06-04 00:36:00,
2013-06-03 17:41:00,64.9,57.2,29.85,South,176,3.0,4.0,76,0.00,NA,NA,-99.99,VWS Version 10.39,2013-06-04 00:41:00,
2013-06-03 17:46:00,64.7,57.3,29.86,South,174,4.0,4.0,77,0.00,NA,NA,-99.99,VWS Version 10.39,2013-06-04 00:46:00,
2013-06-03 17:51:00,64.6,57.2,29.86,SSW,205,5.0,5.0,77,0.00,NA,NA,-99.99,VWS Version 10.39,2013-06-04 00:51:00,
2013-06-03 17:56:00,64.6,57.2,29.85,South,187,3.0,7.0,77,0.00,NA,NA,-99.99,VWS Version 10.39,2013-06-04 00:56:00,
2013-06-03 18:01:00,64.4,57.0,29.85,SSW,207,3.0,3.0,77,0.00,NA,NA,-99.99,VWS Version 10.39,2013-06-04 01:01:00,
2013-06-03 18:06:00,64.2,56.8,29.85,SSW,196,2.0,4.0,77,0.00,NA,NA,-99.99,VWS Version 10.39,2013-06-04 01:06:00,
2013-06-03 18:11:00,64.1,57.1,29.86,SSW,200,4.0,4.0,78,0.00,NA,NA,-99.99,VWS Version 10.39,2013-06-04 01:11:00,
2013-06-03 18:21:00,63.9,56.9,29.86,SSW,198,1.0,2.0,78,0.00,NA,NA,-99.99,VWS Version 10.39,2013-06-04 01:21:00,
2013-06-03 18:26:00,63.9,56.6,29.86,SW,215,2.0,3.0,77,0.00,NA,NA,-99.99,VWS Version 10.39,2013-06-04 01:26:00,
2013-06-03 18:31:00,63.8,56.5,29.86,SW,231,2.0,4.0,77,0.00,NA,NA,-99.99,VWS Version 10.39,2013-06-04 01:31:00,
2013-06-03 18:36:00,63.6,56.6,29.86,SW,215,1.0,1.0,78,0.00,NA,NA,-99.99,VWS Version 10.39,2013-06-04 01:36:00,
2013-06-03 18:41:00,63.5,56.5,29.86,SSW,213,2.0,4.0,78,0.00,NA,NA,-99.99,VWS Version 10.39,2013-06-04 01:41:00,
2013-06-03 18:46:00,63.2,56.2,29.86,SSW,196,7.0,7.0,78,0.00,NA,NA,-99.99,VWS Version 10.39,2013-06-04 01:46:00,
2013-06-03 18:51:00,63.1,56.5,29.86,SSW,213,3.0,5.0,79,0.00,NA,NA,-99.99,VWS Version 10.39,2013-06-04 01:51:00,
2013-06-03 18:56:00,63.1,56.8,29.87,SSE,161,1.0,2.0,80,0.00,NA,NA,-99.99,VWS Version 10.39,2013-06-04 01:56:00,
2013-06-03 19:01:00,63.2,56.2,29.87,SE,143,5.0,8.0,78,0.00,NA,NA,-99.99,VWS Version 10.39,2013-06-04 02:01:00,
2013-06-03 19:11:00,63.2,56.2,29.87,SW,229,6.0,6.0,78,0.00,NA,NA,-99.99,VWS Version 10.39,2013-06-04 02:11:00,
2013-06-03 19:21:00,63.0,56.4,29.87,SSW,203,3.0,3.0,79,0.00,NA,NA,-99.99,VWS Version 10.39,2013-06-04 02:21:00,
2013-06-03 19:26:00,62.8,56.2,29.87,SSE,148,5.0,5.0,79,0.00,NA,NA,-99.99,VWS Version 10.39,2013-06-04 02:26:00,
2013-06-03 19:31:00,62.7,56.5,29.87,SE,140,7.0,7.0,80,0.00,NA,NA,-99.99,VWS Version 10.39,2013-06-04 02:31:00,
2013-06-03 19:36:00,62.8,56.2,29.87,SSE,163,6.0,6.0,79,0.00,NA,NA,-99.99,VWS Version 10.39,2013-06-04 02:36:00,
2013-06-03 19:41:00,62.7,56.5,29.87,SSW,208,2.0,5.0,80,0.00,NA,NA,-99.99,VWS Version 10.39,2013-06-04 02:41:00,
2013-06-03 19:51:00,62.7,56.1,29.87,South,182,1.0,3.0,79,0.00,NA,NA,-99.99,VWS Version 10.39,2013-06-04 02:51:00,
2013-06-03 19:56:00,62.8,56.2,29.87,South,169,3.0,3.0,79,0.00,NA,NA,-99.99,VWS Version 10.39,2013-06-04 02:56:00,
2013-06-03 20:01:00,62.8,56.2,29.87,South,175,2.0,3.0,79,0.00,NA,NA,-99.99,VWS Version 10.39,2013-06-04 03:01:00,
2013-06-03 20:06:00,62.7,56.1,29.87,ESE,115,5.0,6.0,79,0.00,NA,NA,-99.99,VWS Version 10.39,2013-06-04 03:06:00,
2013-06-03 20:16:00,62.6,56.0,29.87,South,188,7.0,7.0,79,0.00,NA,NA,-99.99,VWS Version 10.39,2013-06-04 03:16:00,
2013-06-03 20:21:00,62.5,55.9,29.87,South,171,0.0,3.0,79,0.00,NA,NA,-99.99,VWS Version 10.39,2013-06-04 03:21:00,
2013-06-03 20:26:00,62.5,55.9,29.87,SSE,158,1.0,3.0,79,0.00,NA,NA,-99.99,VWS Version 10.39,2013-06-04 03:26:00,
2013-06-03 20:31:00,62.4,55.8,29.87,SSE,159,1.0,3.0,79,0.00,NA,NA,-99.99,VWS Version 10.39,2013-06-04 03:31:00,
2013-06-03 20:36:00,62.4,56.2,29.88,SSE,153,4.0,5.0,80,0.00,NA,NA,-99.99,VWS Version 10.39,2013-06-04 03:36:00,
2013-06-03 20:41:00,62.4,56.2,29.88,SSE,167,7.0,11.0,80,0.00,NA,NA,-99.99,VWS Version 10.39,2013-06-04 03:41:00,
2013-06-03 20:46:00,62.2,56.0,29.88,SSE,157,4.0,4.0,80,0.00,NA,NA,-99.99,VWS Version 10.39,2013-06-04 03:46:00,
2013-06-03 20:56:00,62.2,56.0,29.88,SSE,163,3.0,4.0,80,0.00,NA,NA,-99.99,VWS Version 10.39,2013-06-04 03:56:00,
2013-06-03 21:16:00,62.1,56.2,29.88,SSE,161,3.0,7.0,81,0.00,NA,NA,-99.99,VWS Version 10.39,2013-06-04 04:16:00,
2013-06-03 21:21:00,62.1,56.2,29.89,SE,134,3.0,4.0,81,0.00,NA,NA,-99.99,VWS Version 10.39,2013-06-04 04:21:00,
2013-06-03 21:26:00,62.1,56.2,29.89,SE,128,5.0,6.0,81,0.00,NA,NA,-99.99,VWS Version 10.39,2013-06-04 04:26:00,
2013-06-03 21:31:00,62.2,56.3,29.89,SE,144,5.0,5.0,81,0.00,NA,NA,-99.99,VWS Version 10.39,2013-06-04 04:31:00,
2013-06-03 21:36:00,62.1,56.2,29.89,SE,134,3.0,3.0,81,0.00,NA,NA,-99.99,VWS Version 10.39,2013-06-04 04:36:00,
2013-06-03 21:46:00,62.1,56.2,29.89,SE,144,8.0,8.0,81,0.00,NA,NA,-99.99,VWS Version 10.39,2013-06-04 04:46:00,
2013-06-03 21:51:00,62.0,56.1,29.89,SSE,163,4.0,4.0,81,0.00,NA,NA,-99.99,VWS Version 10.39,2013-06-04 04:51:00,
2013-06-03 21:56:00,61.9,56.0,29.89,SE,145,4.0,7.0,81,0.00,NA,NA,-99.99,VWS Version 10.39,2013-06-04 04:56:00,
2013-06-03 22:01:00,61.8,55.9,29.89,SE,136,2.0,5.0,81,0.00,NA,NA,-99.99,VWS Version 10.39,2013-06-04 05:01:00,
2013-06-03 22:06:00,61.9,56.3,29.89,South,175,2.0,3.0,82,0.00,NA,NA,-99.99,VWS Version 10.39,2013-06-04 05:06:00,
2013-06-03 22:11:00,62.0,56.5,29.89,South,185,0.0,2.0,82,0.00,NA,NA,-99.99,VWS Version 10.39,2013-06-04 05:11:00,
2013-06-03 22:16:00,62.0,56.1,29.89,SSE,156,6.0,8.0,81,0.00,NA,NA,-99.99,VWS Version 10.39,2013-06-04 05:16:00,
2013-06-03 22:31:00,62.0,56.1,29.90,SSE,166,7.0,9.0,81,0.00,NA,NA,-99.99,VWS Version 10.39,2013-06-04 05:31:00,
2013-06-03 22:36:00,61.8,56.2,29.90,SSE,155,3.0,6.0,82,0.00,NA,NA,-99.99,VWS Version 10.39,2013-06-04 05:36:00,
2013-06-03 22:41:00,61.9,56.3,29.90,SSE,153,6.0,6.0,82,0.00,NA,NA,-99.99,VWS Version 10.39,2013-06-04 05:41:00,
2013-06-03 22:46:00,61.9,56.3,29.90,SSE,159,2.0,8.0,82,0.00,NA,NA,-99.99,VWS Version 10.39,2013-06-04 05:46:00,
2013-06-03 22:51:00,61.9,56.3,29.90,SE,144,4.0,7.0,82,0.00,NA,NA,-99.99,VWS Version 10.39,2013-06-04 05:51:00,
2013-06-03 22:56:00,61.9,56.3,29.90,ESE,121,3.0,7.0,82,0.00,NA,NA,-99.99,VWS Version 10.39,2013-06-04 05:56:00,
2013-06-03 23:06:00,61.9,56.3,29.90,SE,133,4.0,7.0,82,0.00,NA,NA,-99.99,VWS Version 10.39,2013-06-04 06:06:00,
2013-06-03 23:16:00,62.0,56.5,29.90,SE,139,3.0,4.0,82,0.00,NA,NA,-99.99,VWS Version 10.39,2013-06-04 06:16:00,
2013-06-03 23:26:00,62.0,56.5,29.90,SE,132,3.0,6.0,82,0.00,NA,NA,-99.99,VWS Version 10.39,2013-06-04 06:26:00,
2013-06-03 23:31:00,61.9,56.3,29.90,SSE,148,6.0,8.0,82,0.00,NA,NA,-99.99,VWS Version 10.39,2013-06-04 06:31:00,
2013-06-03 23:36:00,61.8,56.2,29.90,SSE,154,1.0,2.0,82,0.00,NA,NA,-99.99,VWS Version 10.39,2013-06-04 06:36:00,
2013-06-03 23:41:00,61.9,56.3,29.91,SE,146,6.0,6.0,82,0.00,NA,NA,-99.99,VWS Version 10.39,2013-06-04 06:41:00,
2013-06-03 23:46:00,61.8,56.2,29.90,SSE,165,3.0,5.0,82,0.00,NA,NA,-99.99,VWS Version 10.39,2013-06-04 06:46:00,
2013-06-03 23:51:00,61.8,56.2,29.90,SSE,153,12.0,12.0,82,0.00,NA,NA,-99.99,VWS Version 10.39,2013-06-04 06:51:00,
2013-06-03 23:56:00,61.7,56.2,29.90,SSE,168,3.0,5.0,82,0.00,NA,NA,-99.99,VWS Version 10.39,2013-06-04 06:56:00,